createdAt,value
2023-01-18T00:01:01.093Z,12.73
2023-01-18T00:03:22.654Z,12.87
2023-01-18T00:05:44.248Z,12.87
2023-01-18T00:08:05.381Z,12.97
2023-01-18T00:10:26.555Z,12.97
2023-01-18T00:12:48.052Z,13.93
2023-01-18T00:15:11.615Z,13.30
2023-01-18T00:17:32.568Z,12.27
2023-01-18T00:19:53.683Z,13.43
2023-01-18T00:22:14.919Z,13.10
2023-01-18T00:24:36.282Z,13.47
2023-01-18T00:26:57.341Z,13.93
2023-01-18T00:29:18.451Z,13.43
2023-01-18T00:31:40.946Z,13.90
2023-01-18T00:34:02.260Z,13.83
2023-01-18T00:36:23.406Z,13.97
2023-01-18T00:38:45.101Z,15.03
2023-01-18T00:41:06.252Z,14.40
2023-01-18T00:43:38.729Z,14.83
2023-01-18T00:45:59.711Z,15.00
2023-01-18T00:48:22.203Z,15.50
2023-01-18T00:50:43.567Z,14.20
2023-01-18T00:53:04.936Z,15.70
2023-01-18T00:55:26.563Z,15.90
2023-01-18T00:57:47.842Z,15.93
2023-01-18T01:00:12.309Z,15.27
2023-01-18T01:02:33.520Z,16.13
2023-01-18T01:05:13.888Z,15.83
2023-01-18T01:07:34.987Z,14.93
2023-01-18T01:09:57.935Z,14.77
2023-01-18T01:12:36.634Z,16.23
2023-01-18T01:15:15.599Z,16.00
2023-01-18T01:17:55.769Z,16.67
2023-01-18T01:20:36.209Z,15.93
2023-01-18T01:23:14.948Z,14.67
2023-01-18T01:25:54.828Z,16.90
2023-01-18T01:28:16.124Z,16.30
2023-01-18T01:30:37.643Z,16.00
2023-01-18T01:32:59.321Z,17.83
2023-01-18T01:35:22.198Z,16.27
2023-01-18T01:37:43.309Z,17.90
2023-01-18T01:40:04.851Z,17.37
2023-01-18T01:42:25.745Z,17.57
2023-01-18T01:44:50.015Z,18.10
2023-01-18T01:47:13.356Z,18.10
2023-01-18T01:49:35.572Z,17.67
2023-01-18T01:51:59.680Z,18.77
2023-01-18T01:54:22.789Z,18.27
2023-01-18T01:56:44.745Z,18.80
2023-01-18T01:59:06.877Z,19.27
2023-01-18T02:01:28.971Z,17.83
2023-01-18T02:03:49.992Z,17.90
2023-01-18T02:06:16.346Z,18.63
2023-01-18T02:08:38.965Z,18.30
2023-01-18T02:11:00.173Z,19.40
2023-01-18T02:13:23.872Z,17.37
2023-01-18T02:15:49.139Z,17.53
2023-01-18T02:18:22.533Z,17.83
2023-01-18T02:21:02.657Z,17.87
2023-01-18T02:23:33.101Z,18.53
2023-01-18T02:26:08.456Z,18.57
2023-01-18T02:28:33.612Z,19.33
2023-01-18T02:30:59.733Z,17.60
2023-01-18T02:33:27.740Z,17.97
2023-01-18T02:35:51.633Z,17.63
2023-01-18T02:38:14.223Z,19.43
2023-01-18T02:40:39.075Z,18.10
2023-01-18T02:43:19.619Z,18.63
2023-01-18T02:46:01.338Z,19.20
2023-01-18T02:48:23.749Z,19.03
2023-01-18T02:50:44.620Z,18.27
2023-01-18T02:53:05.989Z,18.53
2023-01-18T02:55:32.194Z,19.23
2023-01-18T02:57:54.564Z,20.17
2023-01-18T03:00:19.096Z,18.93
2023-01-18T03:02:42.405Z,18.30
2023-01-18T03:05:04.085Z,19.17
2023-01-18T03:07:27.556Z,18.53
2023-01-18T03:09:48.945Z,18.23
2023-01-18T03:12:15.283Z,18.53
2023-01-18T03:14:40.564Z,17.93
2023-01-18T03:17:04.578Z,18.10
2023-01-18T03:19:50.302Z,18.83
2023-01-18T03:22:11.481Z,17.50
2023-01-18T03:24:41.748Z,17.13
2023-01-18T03:27:20.512Z,17.23
2023-01-18T03:29:59.400Z,16.33
2023-01-18T03:32:38.377Z,17.57
2023-01-18T03:35:03.773Z,16.77
2023-01-18T03:37:27.712Z,17.10
2023-01-18T03:39:51.589Z,17.27
2023-01-18T03:42:15.511Z,16.83
2023-01-18T03:44:37.932Z,16.20
2023-01-18T03:46:58.976Z,16.07
2023-01-18T03:49:20.363Z,16.07
2023-01-18T03:51:48.175Z,16.00
2023-01-18T03:54:12.679Z,16.07
2023-01-18T03:56:37.139Z,16.57
2023-01-18T03:59:01.169Z,16.80
2023-01-18T04:01:22.470Z,15.97
2023-01-18T04:03:43.901Z,16.60
2023-01-18T04:06:06.031Z,16.57
2023-01-18T04:08:28.486Z,15.77
2023-01-18T04:10:49.777Z,16.50
2023-01-18T04:13:11.089Z,16.50
2023-01-18T04:15:32.401Z,16.80
2023-01-18T04:17:55.879Z,16.27
2023-01-18T04:20:17.329Z,15.83
2023-01-18T04:22:38.321Z,15.27
2023-01-18T04:25:00.951Z,15.23
2023-01-18T04:27:24.269Z,14.73
2023-01-18T04:29:45.555Z,15.60
2023-01-18T04:32:06.931Z,16.23
2023-01-18T04:34:28.195Z,16.93
2023-01-18T04:36:49.624Z,14.80
2023-01-18T04:39:12.042Z,14.13
2023-01-18T04:41:34.803Z,13.97
2023-01-18T04:43:56.104Z,15.10
2023-01-18T04:46:17.415Z,14.53
2023-01-18T04:48:38.608Z,13.87
2023-01-18T04:50:59.760Z,13.87
2023-01-18T04:53:21.338Z,14.13
2023-01-18T04:55:42.357Z,14.53
2023-01-18T04:58:04.968Z,15.17
2023-01-18T05:00:26.420Z,13.90
2023-01-18T05:02:48.387Z,13.23
2023-01-18T05:05:10.155Z,14.57
2023-01-18T05:07:33.330Z,14.40
2023-01-18T05:09:54.469Z,14.23
2023-01-18T05:12:15.776Z,14.80
2023-01-18T05:14:38.556Z,14.80
2023-01-18T05:16:59.901Z,15.27
2023-01-18T05:19:21.330Z,15.03
2023-01-18T05:21:42.354Z,15.53
2023-01-18T05:24:03.754Z,15.33
2023-01-18T05:26:25.374Z,15.33
2023-01-18T05:28:46.763Z,14.53
2023-01-18T05:31:09.662Z,15.57
2023-01-18T05:33:30.932Z,14.10
2023-01-18T05:35:53.292Z,14.87
2023-01-18T05:38:14.409Z,15.67
2023-01-18T05:40:35.745Z,16.57
2023-01-18T05:42:57.435Z,15.17
2023-01-18T05:45:19.757Z,15.93
2023-01-18T05:47:42.471Z,15.93
2023-01-18T05:50:03.898Z,16.83
2023-01-18T05:52:25.266Z,15.33
2023-01-18T05:54:46.615Z,15.13
2023-01-18T05:57:07.491Z,15.60
2023-01-18T05:59:28.877Z,15.00
2023-01-18T06:01:50.041Z,14.17
2023-01-18T06:04:12.593Z,15.60
2023-01-18T06:06:34.804Z,15.33
2023-01-18T06:08:56.353Z,14.60
2023-01-18T06:11:17.805Z,14.10
2023-01-18T06:13:38.995Z,14.80
2023-01-18T06:16:00.975Z,14.57
2023-01-18T06:18:22.317Z,14.33
2023-01-18T06:20:44.966Z,14.67
2023-01-18T06:23:06.328Z,14.97
2023-01-18T06:25:27.647Z,14.93
2023-01-18T06:27:48.627Z,15.30
2023-01-18T06:30:11.050Z,15.47
2023-01-18T06:32:32.128Z,13.83
2023-01-18T06:34:53.312Z,12.93
2023-01-18T06:37:15.906Z,11.53
2023-01-18T06:39:37.200Z,10.17
2023-01-18T06:41:58.594Z,10.10
2023-01-18T06:44:19.508Z,8.90
2023-01-18T06:46:41.007Z,9.47
2023-01-18T06:49:02.273Z,9.33
2023-01-18T06:51:24.066Z,11.43
2023-01-18T06:53:46.418Z,10.60
2023-01-18T06:56:10.301Z,8.73
2023-01-18T06:58:32.717Z,9.73
2023-01-18T07:00:55.795Z,10.10
2023-01-18T07:03:16.976Z,9.90
2023-01-18T07:05:38.142Z,12.63
2023-01-18T07:07:59.335Z,8.87
2023-01-18T07:10:21.975Z,35.00
2023-01-18T07:12:43.279Z,8.67
2023-01-18T07:15:20.383Z,9.10
2023-01-18T07:17:42.822Z,9.20
2023-01-18T07:20:05.082Z,9.53
2023-01-18T07:22:26.512Z,9.63
2023-01-18T07:24:47.809Z,9.30
2023-01-18T07:27:10.684Z,10.03
2023-01-18T07:29:31.903Z,10.63
2023-01-18T07:31:53.186Z,10.37
2023-01-18T07:34:14.473Z,15.50
2023-01-18T07:36:35.740Z,17.07
2023-01-18T07:38:56.896Z,11.03
2023-01-18T07:41:18.147Z,11.13
2023-01-18T07:43:41.198Z,10.10
2023-01-18T07:46:03.959Z,9.60
2023-01-18T07:48:25.564Z,9.90
2023-01-18T07:50:52.828Z,10.37
2023-01-18T07:53:13.871Z,10.30
2023-01-18T07:55:35.527Z,9.97
2023-01-18T07:57:56.781Z,11.40
2023-01-18T08:00:20.161Z,14.50
2023-01-18T08:02:41.788Z,11.40
2023-01-18T08:05:03.898Z,11.23
2023-01-18T08:07:25.576Z,11.80
2023-01-18T08:09:47.875Z,10.00
2023-01-18T08:12:14.125Z,13.43
2023-01-18T08:14:36.412Z,11.23
2023-01-18T08:17:00.150Z,11.60
2023-01-18T08:19:25.389Z,11.23
2023-01-18T08:21:46.753Z,13.37
2023-01-18T08:24:08.069Z,13.87
2023-01-18T08:26:30.993Z,12.60
2023-01-18T08:28:53.930Z,13.83
2023-01-18T08:31:21.768Z,13.70
2023-01-18T08:33:47.729Z,15.20
2023-01-18T08:36:17.242Z,12.20
2023-01-18T08:38:42.619Z,13.50
2023-01-18T08:41:06.777Z,11.87
2023-01-18T08:43:32.829Z,14.23
2023-01-18T08:45:56.231Z,12.83
2023-01-18T08:48:19.635Z,12.10
2023-01-18T08:50:47.242Z,13.13
2023-01-18T08:53:09.572Z,12.83
2023-01-18T08:55:34.552Z,11.00
2023-01-18T08:57:58.268Z,11.43
2023-01-18T09:00:23.990Z,13.13
2023-01-18T09:02:51.366Z,10.90
2023-01-18T09:05:14.155Z,11.67
2023-01-18T09:07:39.782Z,11.83
2023-01-18T09:10:07.320Z,10.93
2023-01-18T09:12:30.292Z,10.80
2023-01-18T09:14:54.180Z,10.83
2023-01-18T09:17:19.108Z,11.10
2023-01-18T09:19:42.141Z,10.83
2023-01-18T09:22:05.054Z,10.93
2023-01-18T09:24:30.071Z,10.77
2023-01-18T09:26:52.932Z,10.60
2023-01-18T09:29:14.040Z,11.00
2023-01-18T09:31:36.660Z,9.73
2023-01-18T09:34:17.706Z,11.27
2023-01-18T09:36:42.826Z,11.10
2023-01-18T09:39:08.877Z,11.00
2023-01-18T09:41:37.524Z,10.63
2023-01-18T09:44:02.644Z,11.30
2023-01-18T09:46:31.740Z,9.80
2023-01-18T09:48:55.600Z,9.70
2023-01-18T09:51:20.750Z,9.87
2023-01-18T09:53:53.205Z,9.97
2023-01-18T09:56:17.352Z,9.63
2023-01-18T09:58:44.243Z,9.20
2023-01-18T10:01:07.551Z,9.00
2023-01-18T10:03:33.369Z,9.53
2023-01-18T10:06:08.312Z,8.77
2023-01-18T10:08:30.145Z,9.30
2023-01-18T10:10:54.790Z,9.63
2023-01-18T10:13:26.008Z,10.10
2023-01-18T10:15:49.456Z,9.87
2023-01-18T10:18:11.281Z,9.77
2023-01-18T10:20:36.761Z,9.63
2023-01-18T10:23:00.088Z,9.53
2023-01-18T10:25:25.511Z,9.23
2023-01-18T10:27:55.948Z,9.37
2023-01-18T10:30:31.512Z,9.13
2023-01-18T10:32:56.098Z,8.60
2023-01-18T10:35:23.673Z,9.33
2023-01-18T10:37:46.668Z,9.03
2023-01-18T10:40:10.192Z,8.50
2023-01-18T10:42:35.149Z,9.13
2023-01-18T10:44:56.569Z,9.27
2023-01-18T10:47:18.309Z,9.13
2023-01-18T10:49:41.561Z,8.87
2023-01-18T10:52:17.757Z,8.70
2023-01-18T10:54:40.263Z,8.50
2023-01-18T10:57:05.098Z,8.80
2023-01-18T10:59:29.865Z,8.63
2023-01-18T11:01:53.130Z,9.70
2023-01-18T11:04:18.916Z,8.83
2023-01-18T11:06:49.139Z,9.10
2023-01-18T11:09:30.292Z,8.30
2023-01-18T11:12:08.660Z,8.90
2023-01-18T11:14:31.560Z,8.20
2023-01-18T11:16:58.422Z,8.17
2023-01-18T11:19:19.974Z,8.80
2023-01-18T11:21:46.159Z,8.67
2023-01-18T11:24:12.390Z,8.27
2023-01-18T11:26:33.690Z,9.30
2023-01-18T11:28:58.364Z,8.90
2023-01-18T11:31:22.252Z,9.10
2023-01-18T11:33:53.642Z,8.77
2023-01-18T11:36:14.756Z,8.90
2023-01-18T11:38:36.270Z,8.27
2023-01-18T11:41:04.431Z,8.30
2023-01-18T11:43:27.909Z,8.87
2023-01-18T11:45:50.615Z,9.20
2023-01-18T11:48:14.650Z,8.67
2023-01-18T11:50:39.863Z,8.60
2023-01-18T11:53:05.785Z,9.00
2023-01-18T11:55:31.218Z,8.63
2023-01-18T11:57:54.490Z,8.37
2023-01-18T12:00:16.859Z,8.53
2023-01-18T12:02:45.445Z,8.57
2023-01-18T12:05:25.782Z,8.10
2023-01-18T12:07:50.950Z,8.33
2023-01-18T12:10:13.914Z,8.10
2023-01-18T12:12:41.625Z,8.83
2023-01-18T12:15:25.657Z,8.57
2023-01-18T12:18:11.388Z,8.93
2023-01-18T12:20:37.652Z,8.97
2023-01-18T12:23:09.654Z,8.70
2023-01-18T12:25:40.816Z,9.53
2023-01-18T12:28:07.831Z,9.53
2023-01-18T12:30:35.473Z,9.97
2023-01-18T12:33:04.766Z,9.13
2023-01-18T12:35:33.803Z,9.63
2023-01-18T12:37:58.446Z,9.47
2023-01-18T12:40:29.225Z,8.97
2023-01-18T12:42:55.013Z,9.63
2023-01-18T12:45:23.229Z,8.90
2023-01-18T12:47:48.253Z,8.30
2023-01-18T12:50:16.052Z,7.10
2023-01-18T12:52:41.197Z,7.33
2023-01-18T12:55:04.896Z,7.77
2023-01-18T12:57:26.707Z,8.03
2023-01-18T12:59:52.729Z,8.33
2023-01-18T13:02:22.392Z,8.23
2023-01-18T13:04:47.316Z,9.27
2023-01-18T13:07:13.140Z,9.47
2023-01-18T13:09:37.010Z,7.93
2023-01-18T13:11:59.367Z,8.87
2023-01-18T13:14:23.722Z,7.87
2023-01-18T13:16:49.437Z,7.90
2023-01-18T13:19:12.362Z,7.50
2023-01-18T13:21:40.263Z,7.53
2023-01-18T13:24:08.984Z,8.57
2023-01-18T13:26:31.198Z,8.67
2023-01-18T13:29:07.411Z,8.03
2023-01-18T13:31:31.352Z,8.23
2023-01-18T13:33:56.949Z,8.70
2023-01-18T13:36:21.424Z,9.20
2023-01-18T13:38:51.732Z,8.90
2023-01-18T13:41:13.677Z,8.67
2023-01-18T13:43:49.641Z,8.97
2023-01-18T13:46:19.707Z,8.87
2023-01-18T13:48:45.564Z,11.20
2023-01-18T13:51:08.402Z,29.37
2023-01-18T13:53:31.867Z,9.30
2023-01-18T13:56:12.351Z,11.83
2023-01-18T13:58:34.740Z,8.37
2023-01-18T14:00:58.493Z,8.23
2023-01-18T14:03:22.920Z,7.77
2023-01-18T14:05:45.369Z,7.50
2023-01-18T14:08:07.002Z,7.90
2023-01-18T14:10:31.611Z,7.90
2023-01-18T14:12:55.244Z,7.87
2023-01-18T14:15:37.683Z,7.07
2023-01-18T14:17:59.524Z,9.73
2023-01-18T14:20:40.136Z,8.07
2023-01-18T14:23:18.489Z,6.93
2023-01-18T14:25:51.596Z,12.03
2023-01-18T14:28:16.724Z,6.70
2023-01-18T14:30:39.037Z,8.30
2023-01-18T14:33:03.586Z,8.87
2023-01-18T14:35:25.964Z,11.17
2023-01-18T14:37:47.844Z,7.07
2023-01-18T14:40:15.707Z,8.60
2023-01-18T14:42:40.089Z,7.90
2023-01-18T14:45:03.022Z,7.47
2023-01-18T14:47:31.142Z,7.50
2023-01-18T14:49:53.108Z,8.13
2023-01-18T14:52:15.420Z,8.77
2023-01-18T14:54:36.635Z,9.67
2023-01-18T14:57:01.925Z,8.20
2023-01-18T14:59:24.029Z,6.90
2023-01-18T15:01:52.269Z,10.70
2023-01-18T15:04:20.019Z,8.70
2023-01-18T15:06:42.340Z,10.20
2023-01-18T15:09:05.117Z,9.07
2023-01-18T15:11:27.009Z,8.23
2023-01-18T15:13:50.865Z,9.57
2023-01-18T15:16:12.515Z,10.17
2023-01-18T15:18:36.046Z,10.30
2023-01-18T15:20:58.360Z,10.27
2023-01-18T15:23:19.759Z,9.50
2023-01-18T15:25:40.925Z,9.37
2023-01-18T15:28:18.362Z,8.70
2023-01-18T15:30:48.658Z,11.10
2023-01-18T15:33:10.315Z,8.80
2023-01-18T15:35:32.979Z,7.53
2023-01-18T15:37:54.856Z,7.83
2023-01-18T15:40:24.061Z,8.53
2023-01-18T15:42:46.077Z,7.87
2023-01-18T15:45:14.595Z,9.00
2023-01-18T15:47:36.776Z,7.93
2023-01-18T15:49:59.003Z,7.50
2023-01-18T15:52:43.854Z,7.37
2023-01-18T15:55:07.086Z,8.03
2023-01-18T15:57:28.731Z,7.73
2023-01-18T15:59:50.062Z,8.03
2023-01-18T16:02:19.619Z,7.93
2023-01-18T16:04:41.627Z,8.40
2023-01-18T16:07:17.689Z,10.73
2023-01-18T16:09:40.921Z,9.97
2023-01-18T16:12:04.488Z,12.67
2023-01-18T16:14:32.803Z,10.47
2023-01-18T16:16:55.154Z,12.97
2023-01-18T16:19:23.947Z,11.93
2023-01-18T16:21:46.852Z,16.80
2023-01-18T16:24:15.812Z,16.90
2023-01-18T16:26:41.538Z,20.00
2023-01-18T16:29:06.815Z,18.30
2023-01-18T16:31:29.178Z,20.03
2023-01-18T16:33:50.327Z,16.80
2023-01-18T16:36:16.732Z,17.23
2023-01-18T16:38:38.146Z,15.83
2023-01-18T16:40:59.700Z,15.40
2023-01-18T16:43:23.356Z,12.97
2023-01-18T16:45:45.318Z,13.30
2023-01-18T16:48:07.069Z,11.57
2023-01-18T16:50:28.711Z,11.00
2023-01-18T16:52:49.984Z,11.57
2023-01-18T16:55:12.746Z,11.90
2023-01-18T16:57:34.158Z,12.17
2023-01-18T16:59:56.995Z,10.40
2023-01-18T17:02:18.564Z,10.70
2023-01-18T17:04:40.400Z,11.07
2023-01-18T17:07:01.999Z,10.00
2023-01-18T17:09:24.233Z,9.87
2023-01-18T17:11:45.652Z,9.37
2023-01-18T17:14:07.039Z,8.87
2023-01-18T17:16:29.777Z,9.10
2023-01-18T17:18:51.381Z,9.30
2023-01-18T17:21:13.061Z,8.80
2023-01-18T17:23:34.423Z,8.77
2023-01-18T17:25:55.589Z,9.23
2023-01-18T17:28:18.181Z,9.37
2023-01-18T17:30:39.861Z,9.00
2023-01-18T17:33:02.997Z,9.37
2023-01-18T17:35:25.029Z,9.03
2023-01-18T17:37:46.557Z,8.90
2023-01-18T17:40:19.703Z,8.43
2023-01-18T17:42:46.131Z,8.80
2023-01-18T17:45:14.540Z,10.10
2023-01-18T17:47:38.820Z,8.97
2023-01-18T17:50:08.533Z,9.47
2023-01-18T17:52:29.968Z,8.63
2023-01-18T17:54:50.918Z,9.87
2023-01-18T17:57:12.325Z,9.77
2023-01-18T17:59:33.577Z,11.83
2023-01-18T18:01:55.012Z,10.40
2023-01-18T18:04:16.290Z,10.60
2023-01-18T18:06:46.089Z,10.40
2023-01-18T18:09:10.814Z,9.90
2023-01-18T18:11:32.162Z,9.23
2023-01-18T18:13:54.476Z,9.63
2023-01-18T18:16:18.853Z,9.33
2023-01-18T18:18:40.765Z,10.17
2023-01-18T18:21:02.756Z,10.37
2023-01-18T18:23:25.566Z,10.60
2023-01-18T18:25:48.236Z,10.30
2023-01-18T18:28:09.162Z,9.43
2023-01-18T18:30:30.731Z,10.60
2023-01-18T18:32:51.822Z,10.73
2023-01-18T18:35:25.409Z,11.97
2023-01-18T18:37:47.493Z,11.03
2023-01-18T18:40:11.115Z,12.20
2023-01-18T18:42:32.246Z,12.30
2023-01-18T18:44:53.691Z,13.43
2023-01-18T18:47:15.269Z,13.03
2023-01-18T18:49:36.741Z,12.10
2023-01-18T18:52:00.153Z,12.07
2023-01-18T18:54:21.392Z,12.60
2023-01-18T18:56:44.559Z,11.97
2023-01-18T18:59:05.675Z,15.23
2023-01-18T19:01:29.233Z,13.57
2023-01-18T19:03:51.765Z,14.50
2023-01-18T19:06:13.054Z,17.53
2023-01-18T19:08:34.498Z,15.07
2023-01-18T19:10:57.113Z,14.67
2023-01-18T19:13:19.656Z,14.40
2023-01-18T19:15:45.507Z,13.80
2023-01-18T19:18:06.607Z,13.80
2023-01-18T19:20:27.876Z,13.70
2023-01-18T19:22:49.146Z,13.10
2023-01-18T19:25:10.532Z,12.57
2023-01-18T19:27:31.487Z,11.93
2023-01-18T19:29:55.505Z,11.63
2023-01-18T19:32:17.104Z,11.83
2023-01-18T19:34:38.780Z,11.73
2023-01-18T19:37:00.190Z,10.83
2023-01-18T19:39:22.787Z,11.90
2023-01-18T19:41:44.363Z,12.23
2023-01-18T19:44:05.820Z,11.73
2023-01-18T19:46:30.535Z,12.50
2023-01-18T19:48:56.274Z,13.13
2023-01-18T19:51:22.876Z,12.17
2023-01-18T19:53:44.349Z,12.50
2023-01-18T19:56:07.462Z,12.67
2023-01-18T19:58:30.050Z,13.50
2023-01-18T20:00:51.362Z,14.17
2023-01-18T20:03:14.624Z,45.20
2023-01-18T20:05:35.677Z,43.93
2023-01-18T20:07:56.983Z,26.73
2023-01-18T20:10:20.302Z,22.37
2023-01-18T20:12:41.606Z,31.77
2023-01-18T20:15:03.006Z,20.70
2023-01-18T20:17:24.329Z,21.83
2023-01-18T20:19:47.010Z,24.77
2023-01-18T20:22:08.573Z,53.23
2023-01-18T20:24:29.782Z,41.23
2023-01-18T20:26:51.509Z,35.40
2023-01-18T20:29:13.113Z,32.17
2023-01-18T20:31:36.121Z,25.20
2023-01-18T20:33:57.820Z,24.27
2023-01-18T20:36:20.312Z,22.10
2023-01-18T20:38:41.624Z,19.30
2023-01-18T20:41:03.145Z,18.87
2023-01-18T20:43:24.790Z,21.33
2023-01-18T20:45:46.077Z,20.20
2023-01-18T20:48:07.691Z,21.77
2023-01-18T20:50:29.079Z,20.50
2023-01-18T20:52:52.102Z,18.73
2023-01-18T20:55:14.625Z,18.57
2023-01-18T20:57:35.865Z,17.13
2023-01-18T20:59:57.042Z,16.97
2023-01-18T21:02:18.292Z,18.93
2023-01-18T21:04:39.447Z,21.43
2023-01-18T21:07:00.820Z,18.10
2023-01-18T21:09:23.929Z,16.03
2023-01-18T21:11:45.382Z,16.73
2023-01-18T21:14:06.825Z,21.87
2023-01-18T21:16:28.577Z,16.67
2023-01-18T21:18:52.567Z,15.83
2023-01-18T21:21:13.939Z,16.30
2023-01-18T21:23:39.318Z,14.87
2023-01-18T21:26:02.224Z,18.17
2023-01-18T21:28:23.755Z,17.97
2023-01-18T21:30:44.810Z,15.53
2023-01-18T21:33:07.064Z,13.77
2023-01-18T21:35:29.887Z,13.17
2023-01-18T21:37:50.812Z,12.20
2023-01-18T21:40:12.661Z,13.47
2023-01-18T21:42:52.840Z,13.00
2023-01-18T21:45:31.632Z,13.07
2023-01-18T21:47:52.760Z,13.07
2023-01-18T21:50:31.491Z,13.53
2023-01-18T21:53:10.451Z,13.53
2023-01-18T21:55:31.719Z,13.47
2023-01-18T21:58:08.286Z,13.07
2023-01-18T22:00:29.400Z,14.00
2023-01-18T22:02:50.753Z,14.00
2023-01-18T22:05:12.104Z,20.77
2023-01-18T22:07:34.096Z,19.20
2023-01-18T22:10:04.622Z,16.83
2023-01-18T22:12:26.823Z,15.63
2023-01-18T22:14:50.924Z,14.70
2023-01-18T22:17:13.206Z,13.33
2023-01-18T22:19:34.887Z,14.17
2023-01-18T22:21:56.309Z,16.57
2023-01-18T22:24:17.907Z,14.47
2023-01-18T22:26:40.761Z,14.70
2023-01-18T22:29:01.994Z,14.87
2023-01-18T22:31:24.329Z,14.43
2023-01-18T22:33:46.122Z,14.90
2023-01-18T22:36:07.669Z,14.63
2023-01-18T22:38:29.071Z,15.73
2023-01-18T22:40:50.411Z,16.17
2023-01-18T22:43:11.762Z,14.63
2023-01-18T22:45:32.957Z,14.00
2023-01-18T22:47:55.624Z,14.07
2023-01-18T22:50:17.239Z,14.07
2023-01-18T22:52:38.623Z,13.83
2023-01-18T22:54:59.896Z,13.90
2023-01-18T22:57:21.066Z,14.23
2023-01-18T22:59:42.342Z,15.17
2023-01-18T23:02:03.702Z,13.73
2023-01-18T23:04:29.518Z,14.20
2023-01-18T23:06:54.640Z,14.00
2023-01-18T23:09:16.607Z,14.40
2023-01-18T23:11:38.584Z,16.07
2023-01-18T23:14:17.690Z,15.50
2023-01-18T23:16:56.485Z,13.87
2023-01-18T23:19:18.007Z,14.13
2023-01-18T23:21:40.427Z,15.30
2023-01-18T23:24:01.605Z,16.20
2023-01-18T23:26:22.974Z,14.80
2023-01-18T23:28:44.429Z,15.70
2023-01-18T23:31:05.879Z,16.20
2023-01-18T23:33:26.780Z,16.30
2023-01-18T23:35:48.089Z,15.53
2023-01-18T23:38:10.713Z,16.20
2023-01-18T23:40:49.855Z,16.40
2023-01-18T23:43:29.000Z,16.33
2023-01-18T23:46:07.785Z,15.93
2023-01-18T23:48:46.633Z,15.63
2023-01-18T23:51:27.777Z,16.33
2023-01-18T23:54:08.989Z,16.50
2023-01-18T23:56:30.606Z,16.17
2023-01-18T23:58:51.595Z,16.17
